Impacts METAR Board
IDs:

KISP - Islip/Macarthur Arpt, NY, US

Updated at: 0600 UTC 24 Sep 2018
Potential Impact None Slight Moderate High
Time 23/18Z 23/19Z 23/20Z 23/21Z 23/22Z 23/23Z 24/00Z 24/01Z 24/02Z 24/03Z 24/04Z 24/05Z 24/06Z
Temp66 66 66 66 65 64 64 63 61 63 62 62 61
Dewpt58 58 58 58 57 59 58 58 58 59 59 59 58
Altim30.23 30.22 30.22 30.22 30.24 30.24 30.25 30.27 30.29 30.30 30.31 30.31 30.31
VIS10 10 10 10 10 10 10 10 10 10 10 10 10
CIG31 20 19 21 34 34 38 110 41 23 41 42 --
CoverOVCOVCOVCOVCOVCOVCOVCOVCOVCOVCOVCOVCCLR
FltCatVFRMVFRMVFRMVFRVFRVFRVFRVFRVFRMVFRVFRVFRVFR
WX--------------------------
WDir601001201201200400070606060
WSpd4 5 7 5 4 0 4 0 0 4 3 4 4
WGst-- -- -- -- -- -- -- -- -- -- -- -- --
Raw hourly METARs
KISP 231756Z 06004KT 10SM SCT022 OVC031 19/14 A3023 RMK AO2 SLP237 T01890144 10189 20167 58008 $
KISP 231856Z 10005KT 10SM BKN020 OVC031 19/14 A3022 RMK AO2 SLP233 T01890144
KISP 231956Z 12007KT 10SM BKN019 BKN027 OVC033 19/14 A3022 RMK AO2 SLP233 T01890144
KISP 232056Z 12005KT 10SM BKN021 OVC038 19/14 A3022 RMK AO2 SLP234 T01890144 55003
KISP 232156Z 12004KT 10SM SCT023 OVC034 18/14 A3024 RMK AO2 SLP239 T01830139
KISP 232256Z 00000KT 10SM SCT023 OVC034 18/15 A3024 RMK AO2 SLP240 T01780150
KISP 232356Z 04004KT 10SM SCT029 OVC038 18/14 A3025 RMK AO2 SLP242 T01780144 10194 20178 51008
KISP 240056Z 00000KT 10SM FEW030 SCT040 OVC110 17/14 A3027 RMK AO2 SLP250 T01720144
KISP 240156Z 00000KT 10SM SCT030 BKN041 BKN180 OVC250 16/14 A3029 RMK AO2 SLP256 T01610144
KISP 240256Z 07004KT 10SM FEW016 OVC023 17/15 A3030 RMK AO2 SLP261 T01720150 51018
KISP 240356Z 06003KT 10SM FEW021 OVC041 17/15 A3031 RMK AO2 SLP263 LAST T01670150
KISP 240456Z AUTO 06004KT 10SM OVC042 17/15 A3031 RMK AO2 SLP262 T01670150 401940161
KISP 240556Z AUTO 06004KT 10SM CLR 16/14 A3031 RMK AO2 SLP264 T01610144 10178 20161 51003



Page loaded:  06:13 UTC  |   11:13 PM Pacific  |   12:13 AM Mountain  |   01:13 AM Central  |   02:13 AM Eastern

 

ADVISORIES

FORECASTS

FORECASTS

OBSERVATIONS

USER TOOLS

ABOUT US